sensor_id;sensor_type;location;lat;lon;timestamp;temperature;humidity
5394;DHT22;2720;52.396;10.064;2023-06-22T00:01:16;16.70;99.90
5394;DHT22;2720;52.396;10.064;2023-06-22T00:03:43;16.70;99.90
5394;DHT22;2720;52.396;10.064;2023-06-22T00:06:10;16.60;99.90
5394;DHT22;2720;52.396;10.064;2023-06-22T00:08:37;16.70;99.90
5394;DHT22;2720;52.396;10.064;2023-06-22T00:11:04;16.70;99.90
5394;DHT22;2720;52.396;10.064;2023-06-22T00:13:32;16.60;99.90
5394;DHT22;2720;52.396;10.064;2023-06-22T00:15:59;16.60;99.90
5394;DHT22;2720;52.396;10.064;2023-06-22T00:18:26;16.60;99.90
5394;DHT22;2720;52.396;10.064;2023-06-22T00:20:54;16.60;99.90
5394;DHT22;2720;52.396;10.064;2023-06-22T00:23:24;16.60;99.90
5394;DHT22;2720;52.396;10.064;2023-06-22T00:25:51;16.60;99.90
5394;DHT22;2720;52.396;10.064;2023-06-22T00:28:18;16.70;99.90
5394;DHT22;2720;52.396;10.064;2023-06-22T00:30:48;16.70;99.90
5394;DHT22;2720;52.396;10.064;2023-06-22T00:33:14;16.70;99.90
5394;DHT22;2720;52.396;10.064;2023-06-22T00:35:41;16.60;99.90
5394;DHT22;2720;52.396;10.064;2023-06-22T00:38:09;16.50;99.90
5394;DHT22;2720;52.396;10.064;2023-06-22T00:40:36;16.50;99.90
5394;DHT22;2720;52.396;10.064;2023-06-22T00:43:03;16.40;99.90
5394;DHT22;2720;52.396;10.064;2023-06-22T00:45:30;16.40;99.90
5394;DHT22;2720;52.396;10.064;2023-06-22T00:47:59;16.30;99.90
5394;DHT22;2720;52.396;10.064;2023-06-22T00:50:27;16.30;99.90
5394;DHT22;2720;52.396;10.064;2023-06-22T00:53:00;16.30;99.90
5394;DHT22;2720;52.396;10.064;2023-06-22T00:55:34;15.30;99.90
5394;DHT22;2720;52.396;10.064;2023-06-22T00:58:03;16.30;99.90
5394;DHT22;2720;52.396;10.064;2023-06-22T01:00:33;16.40;99.90
5394;DHT22;2720;52.396;10.064;2023-06-22T01:03:02;16.40;99.90
5394;DHT22;2720;52.396;10.064;2023-06-22T01:05:29;16.50;99.90
5394;DHT22;2720;52.396;10.064;2023-06-22T01:08:08;16.50;99.90
5394;DHT22;2720;52.396;10.064;2023-06-22T01:10:43;16.50;99.90
5394;DHT22;2720;52.396;10.064;2023-06-22T01:13:21;16.50;99.90
5394;DHT22;2720;52.396;10.064;2023-06-22T01:15:53;16.50;99.90
5394;DHT22;2720;52.396;10.064;2023-06-22T01:18:24;16.60;99.90
5394;DHT22;2720;52.396;10.064;2023-06-22T01:20:53;16.60;99.90
5394;DHT22;2720;52.396;10.064;2023-06-22T01:23:29;16.60;99.90
5394;DHT22;2720;52.396;10.064;2023-06-22T01:26:05;16.60;99.90
5394;DHT22;2720;52.396;10.064;2023-06-22T01:28:45;16.60;99.90
5394;DHT22;2720;52.396;10.064;2023-06-22T01:31:14;16.60;99.90
5394;DHT22;2720;52.396;10.064;2023-06-22T01:33:45;16.60;99.90
5394;DHT22;2720;52.396;10.064;2023-06-22T01:36:15;16.70;99.90
5394;DHT22;2720;52.396;10.064;2023-06-22T01:38:43;16.70;99.90
5394;DHT22;2720;52.396;10.064;2023-06-22T01:41:12;16.70;99.90
5394;DHT22;2720;52.396;10.064;2023-06-22T01:43:41;16.70;99.90
5394;DHT22;2720;52.396;10.064;2023-06-22T01:46:08;16.80;99.90
5394;DHT22;2720;52.396;10.064;2023-06-22T01:48:35;16.80;99.90
5394;DHT22;2720;52.396;10.064;2023-06-22T01:51:03;16.80;99.90
5394;DHT22;2720;52.396;10.064;2023-06-22T01:53:30;16.80;99.90
5394;DHT22;2720;52.396;10.064;2023-06-22T01:55:57;16.70;99.90
5394;DHT22;2720;52.396;10.064;2023-06-22T01:58:26;16.70;99.90
5394;DHT22;2720;52.396;10.064;2023-06-22T02:00:58;16.70;99.90
5394;DHT22;2720;52.396;10.064;2023-06-22T02:03:32;16.60;99.90
5394;DHT22;2720;52.396;10.064;2023-06-22T02:06:04;16.60;99.90
5394;DHT22;2720;52.396;10.064;2023-06-22T02:08:38;16.60;99.90
5394;DHT22;2720;52.396;10.064;2023-06-22T02:11:08;16.60;99.90
5394;DHT22;2720;52.396;10.064;2023-06-22T02:13:36;16.50;99.90
5394;DHT22;2720;52.396;10.064;2023-06-22T02:16:05;16.60;99.90
5394;DHT22;2720;52.396;10.064;2023-06-22T02:18:32;16.60;99.90
5394;DHT22;2720;52.396;10.064;2023-06-22T02:21:02;16.50;99.90
5394;DHT22;2720;52.396;10.064;2023-06-22T02:23:29;16.50;99.90
5394;DHT22;2720;52.396;10.064;2023-06-22T02:25:56;16.40;99.90
5394;DHT22;2720;52.396;10.064;2023-06-22T02:28:23;16.40;99.90
5394;DHT22;2720;52.396;10.064;2023-06-22T02:30:50;16.40;99.90
5394;DHT22;2720;52.396;10.064;2023-06-22T02:33:18;16.40;99.90
5394;DHT22;2720;52.396;10.064;2023-06-22T02:35:46;16.50;99.90
5394;DHT22;2720;52.396;10.064;2023-06-22T02:38:14;16.50;99.90
5394;DHT22;2720;52.396;10.064;2023-06-22T02:40:43;16.50;99.90
5394;DHT22;2720;52.396;10.064;2023-06-22T02:43:10;16.50;99.90
5394;DHT22;2720;52.396;10.064;2023-06-22T02:45:37;16.50;99.90
5394;DHT22;2720;52.396;10.064;2023-06-22T02:48:04;16.50;99.90
5394;DHT22;2720;52.396;10.064;2023-06-22T02:50:32;16.50;99.90
5394;DHT22;2720;52.396;10.064;2023-06-22T02:52:59;16.50;99.90
5394;DHT22;2720;52.396;10.064;2023-06-22T02:55:26;16.50;99.90
5394;DHT22;2720;52.396;10.064;2023-06-22T02:57:54;16.50;99.90
5394;DHT22;2720;52.396;10.064;2023-06-22T03:00:23;16.40;99.90
5394;DHT22;2720;52.396;10.064;2023-06-22T03:02:56;16.40;99.90
5394;DHT22;2720;52.396;10.064;2023-06-22T03:05:23;16.40;99.90
5394;DHT22;2720;52.396;10.064;2023-06-22T03:07:53;16.40;99.90
5394;DHT22;2720;52.396;10.064;2023-06-22T03:10:20;16.40;99.90
5394;DHT22;2720;52.396;10.064;2023-06-22T03:12:47;16.40;99.90
5394;DHT22;2720;52.396;10.064;2023-06-22T03:15:14;16.40;99.90
5394;DHT22;2720;52.396;10.064;2023-06-22T03:17:42;16.30;99.90
5394;DHT22;2720;52.396;10.064;2023-06-22T03:20:10;16.30;99.90
5394;DHT22;2720;52.396;10.064;2023-06-22T03:22:38;16.30;99.90
5394;DHT22;2720;52.396;10.064;2023-06-22T03:25:08;16.30;99.90
5394;DHT22;2720;52.396;10.064;2023-06-22T03:27:39;16.30;99.90
5394;DHT22;2720;52.396;10.064;2023-06-22T03:30:09;16.30;99.90
5394;DHT22;2720;52.396;10.064;2023-06-22T03:32:36;16.30;99.90
5394;DHT22;2720;52.396;10.064;2023-06-22T03:35:03;16.30;99.90
5394;DHT22;2720;52.396;10.064;2023-06-22T03:37:31;16.30;99.90
5394;DHT22;2720;52.396;10.064;2023-06-22T03:39:58;16.30;99.90
5394;DHT22;2720;52.396;10.064;2023-06-22T03:42:27;16.30;99.90
5394;DHT22;2720;52.396;10.064;2023-06-22T03:44:53;16.40;99.90
5394;DHT22;2720;52.396;10.064;2023-06-22T03:47:20;16.40;99.90
5394;DHT22;2720;52.396;10.064;2023-06-22T03:49:47;16.40;99.90
5394;DHT22;2720;52.396;10.064;2023-06-22T03:52:14;16.40;99.90
5394;DHT22;2720;52.396;10.064;2023-06-22T03:54:41;16.40;99.90
5394;DHT22;2720;52.396;10.064;2023-06-22T03:57:08;16.50;99.90
5394;DHT22;2720;52.396;10.064;2023-06-22T03:59:38;16.50;99.90
5394;DHT22;2720;52.396;10.064;2023-06-22T04:02:05;16.60;99.90
5394;DHT22;2720;52.396;10.064;2023-06-22T04:04:32;16.70;99.90
5394;DHT22;2720;52.396;10.064;2023-06-22T04:06:59;16.90;99.90
5394;DHT22;2720;52.396;10.064;2023-06-22T04:09:26;17.00;99.90
5394;DHT22;2720;52.396;10.064;2023-06-22T04:11:53;17.20;99.90
5394;DHT22;2720;52.396;10.064;2023-06-22T04:14:20;17.30;99.90
5394;DHT22;2720;52.396;10.064;2023-06-22T04:16:48;17.50;99.90
5394;DHT22;2720;52.396;10.064;2023-06-22T04:19:15;17.60;99.90
5394;DHT22;2720;52.396;10.064;2023-06-22T04:21:43;17.80;99.90
5394;DHT22;2720;52.396;10.064;2023-06-22T04:24:11;17.90;99.90
5394;DHT22;2720;52.396;10.064;2023-06-22T04:26:38;18.00;99.90
5394;DHT22;2720;52.396;10.064;2023-06-22T04:29:07;18.10;99.90
5394;DHT22;2720;52.396;10.064;2023-06-22T04:31:34;18.10;99.90
5394;DHT22;2720;52.396;10.064;2023-06-22T04:34:05;18.00;99.90
5394;DHT22;2720;52.396;10.064;2023-06-22T04:36:34;18.00;99.90
5394;DHT22;2720;52.396;10.064;2023-06-22T04:39:04;18.00;99.90
5394;DHT22;2720;52.396;10.064;2023-06-22T04:41:32;17.90;99.90
5394;DHT22;2720;52.396;10.064;2023-06-22T04:44:08;17.90;99.90
5394;DHT22;2720;52.396;10.064;2023-06-22T04:46:35;18.00;99.90
5394;DHT22;2720;52.396;10.064;2023-06-22T04:49:05;18.00;99.90
5394;DHT22;2720;52.396;10.064;2023-06-22T04:51:37;18.00;99.90
5394;DHT22;2720;52.396;10.064;2023-06-22T04:54:04;18.10;99.90
5394;DHT22;2720;52.396;10.064;2023-06-22T04:56:31;18.20;99.90
5394;DHT22;2720;52.396;10.064;2023-06-22T04:58:58;18.30;99.90
5394;DHT22;2720;52.396;10.064;2023-06-22T05:01:25;18.40;99.90
5394;DHT22;2720;52.396;10.064;2023-06-22T05:03:52;18.50;99.90
5394;DHT22;2720;52.396;10.064;2023-06-22T05:06:22;18.40;99.90
5394;DHT22;2720;52.396;10.064;2023-06-22T05:08:51;18.40;99.90
5394;DHT22;2720;52.396;10.064;2023-06-22T05:11:18;18.50;99.90
5394;DHT22;2720;52.396;10.064;2023-06-22T05:13:45;18.50;99.90
5394;DHT22;2720;52.396;10.064;2023-06-22T05:16:11;18.60;99.90
5394;DHT22;2720;52.396;10.064;2023-06-22T05:18:38;18.80;99.90
5394;DHT22;2720;52.396;10.064;2023-06-22T05:21:07;19.00;99.90
5394;DHT22;2720;52.396;10.064;2023-06-22T05:23:35;19.10;99.90
5394;DHT22;2720;52.396;10.064;2023-06-22T05:26:02;19.40;99.90
5394;DHT22;2720;52.396;10.064;2023-06-22T05:28:29;19.50;99.90
5394;DHT22;2720;52.396;10.064;2023-06-22T05:30:56;19.70;99.90
5394;DHT22;2720;52.396;10.064;2023-06-22T05:33:23;19.90;99.90
5394;DHT22;2720;52.396;10.064;2023-06-22T05:35:50;20.10;99.90
5394;DHT22;2720;52.396;10.064;2023-06-22T05:38:17;20.20;99.90
5394;DHT22;2720;52.396;10.064;2023-06-22T05:40:45;20.30;99.90
5394;DHT22;2720;52.396;10.064;2023-06-22T05:43:12;20.50;99.90
5394;DHT22;2720;52.396;10.064;2023-06-22T05:45:39;20.60;99.90
5394;DHT22;2720;52.396;10.064;2023-06-22T05:48:06;20.80;99.90
5394;DHT22;2720;52.396;10.064;2023-06-22T05:50:33;21.00;99.90
5394;DHT22;2720;52.396;10.064;2023-06-22T05:53:00;21.00;99.90
5394;DHT22;2720;52.396;10.064;2023-06-22T05:55:27;21.00;99.90
5394;DHT22;2720;52.396;10.064;2023-06-22T05:57:55;20.90;99.90
5394;DHT22;2720;52.396;10.064;2023-06-22T06:00:22;20.80;99.90
5394;DHT22;2720;52.396;10.064;2023-06-22T06:02:49;20.70;99.90
5394;DHT22;2720;52.396;10.064;2023-06-22T06:05:16;20.70;99.90
5394;DHT22;2720;52.396;10.064;2023-06-22T06:07:45;20.80;99.90
5394;DHT22;2720;52.396;10.064;2023-06-22T06:10:12;20.90;99.90
5394;DHT22;2720;52.396;10.064;2023-06-22T06:12:39;21.10;99.90
5394;DHT22;2720;52.396;10.064;2023-06-22T06:15:08;21.30;99.90
5394;DHT22;2720;52.396;10.064;2023-06-22T06:17:35;21.40;99.90
5394;DHT22;2720;52.396;10.064;2023-06-22T06:20:03;21.40;99.90
5394;DHT22;2720;52.396;10.064;2023-06-22T06:22:32;21.60;99.90
5394;DHT22;2720;52.396;10.064;2023-06-22T06:24:59;21.50;99.90
5394;DHT22;2720;52.396;10.064;2023-06-22T06:27:26;21.40;99.90
5394;DHT22;2720;52.396;10.064;2023-06-22T06:29:54;21.40;99.90
5394;DHT22;2720;52.396;10.064;2023-06-22T06:32:23;21.30;99.90
5394;DHT22;2720;52.396;10.064;2023-06-22T06:34:50;21.30;99.90
5394;DHT22;2720;52.396;10.064;2023-06-22T06:37:17;21.40;99.90
5394;DHT22;2720;52.396;10.064;2023-06-22T06:39:44;21.50;99.90
5394;DHT22;2720;52.396;10.064;2023-06-22T06:42:11;21.50;99.90
5394;DHT22;2720;52.396;10.064;2023-06-22T06:44:38;21.60;99.90
5394;DHT22;2720;52.396;10.064;2023-06-22T06:47:05;21.80;99.90
5394;DHT22;2720;52.396;10.064;2023-06-22T06:49:34;21.80;99.90
5394;DHT22;2720;52.396;10.064;2023-06-22T06:52:01;21.90;99.90
5394;DHT22;2720;52.396;10.064;2023-06-22T06:54:27;22.10;99.90
5394;DHT22;2720;52.396;10.064;2023-06-22T06:56:55;22.20;99.90
5394;DHT22;2720;52.396;10.064;2023-06-22T06:59:22;22.20;99.90
5394;DHT22;2720;52.396;10.064;2023-06-22T07:01:49;22.30;99.90
5394;DHT22;2720;52.396;10.064;2023-06-22T07:04:16;22.40;99.90
5394;DHT22;2720;52.396;10.064;2023-06-22T07:06:44;22.40;99.90
5394;DHT22;2720;52.396;10.064;2023-06-22T07:09:11;22.40;99.90
5394;DHT22;2720;52.396;10.064;2023-06-22T07:11:38;22.50;99.90
5394;DHT22;2720;52.396;10.064;2023-06-22T07:14:05;22.50;99.90
5394;DHT22;2720;52.396;10.064;2023-06-22T07:16:32;22.40;99.90
5394;DHT22;2720;52.396;10.064;2023-06-22T07:18:59;22.50;99.90
5394;DHT22;2720;52.396;10.064;2023-06-22T07:21:26;22.60;99.90
5394;DHT22;2720;52.396;10.064;2023-06-22T07:23:54;22.60;99.90
5394;DHT22;2720;52.396;10.064;2023-06-22T07:26:22;22.70;99.90
5394;DHT22;2720;52.396;10.064;2023-06-22T07:28:49;22.80;99.90
5394;DHT22;2720;52.396;10.064;2023-06-22T07:31:16;22.80;99.90
5394;DHT22;2720;52.396;10.064;2023-06-22T07:33:43;22.90;99.90
5394;DHT22;2720;52.396;10.064;2023-06-22T07:36:10;23.00;99.90
5394;DHT22;2720;52.396;10.064;2023-06-22T07:38:37;23.00;99.90
5394;DHT22;2720;52.396;10.064;2023-06-22T07:41:06;23.20;99.90
5394;DHT22;2720;52.396;10.064;2023-06-22T07:43:33;23.40;99.90
5394;DHT22;2720;52.396;10.064;2023-06-22T07:46:02;23.40;99.90
5394;DHT22;2720;52.396;10.064;2023-06-22T07:48:29;23.60;99.90
5394;DHT22;2720;52.396;10.064;2023-06-22T07:50:56;23.60;99.90
5394;DHT22;2720;52.396;10.064;2023-06-22T07:53:23;23.40;99.90
5394;DHT22;2720;52.396;10.064;2023-06-22T07:55:50;23.30;99.90
5394;DHT22;2720;52.396;10.064;2023-06-22T07:58:18;23.20;99.90
5394;DHT22;2720;52.396;10.064;2023-06-22T08:00:46;23.10;99.90
5394;DHT22;2720;52.396;10.064;2023-06-22T08:03:14;23.10;99.90
5394;DHT22;2720;52.396;10.064;2023-06-22T08:05:41;23.00;99.90
5394;DHT22;2720;52.396;10.064;2023-06-22T08:08:08;22.90;99.90
5394;DHT22;2720;52.396;10.064;2023-06-22T08:10:35;23.00;99.90
5394;DHT22;2720;52.396;10.064;2023-06-22T08:13:02;23.10;99.90
5394;DHT22;2720;52.396;10.064;2023-06-22T08:15:30;23.10;99.90
5394;DHT22;2720;52.396;10.064;2023-06-22T08:17:57;23.20;99.90
5394;DHT22;2720;52.396;10.064;2023-06-22T08:20:25;23.50;99.90
5394;DHT22;2720;52.396;10.064;2023-06-22T08:22:54;23.90;99.90
5394;DHT22;2720;52.396;10.064;2023-06-22T08:25:21;24.10;99.90
5394;DHT22;2720;52.396;10.064;2023-06-22T08:27:48;24.20;99.90
5394;DHT22;2720;52.396;10.064;2023-06-22T08:30:15;24.50;99.90
5394;DHT22;2720;52.396;10.064;2023-06-22T08:32:44;24.70;99.90
5394;DHT22;2720;52.396;10.064;2023-06-22T08:35:11;25.00;99.90
5394;DHT22;2720;52.396;10.064;2023-06-22T08:37:38;25.40;99.90
5394;DHT22;2720;52.396;10.064;2023-06-22T08:40:07;25.50;99.90
5394;DHT22;2720;52.396;10.064;2023-06-22T08:42:35;25.60;99.90
5394;DHT22;2720;52.396;10.064;2023-06-22T08:45:02;25.80;99.90
5394;DHT22;2720;52.396;10.064;2023-06-22T08:47:29;26.10;99.90
5394;DHT22;2720;52.396;10.064;2023-06-22T08:49:58;26.00;99.90
5394;DHT22;2720;52.396;10.064;2023-06-22T08:52:25;26.00;99.90
5394;DHT22;2720;52.396;10.064;2023-06-22T08:54:52;26.00;99.90
5394;DHT22;2720;52.396;10.064;2023-06-22T08:57:18;26.00;99.90
5394;DHT22;2720;52.396;10.064;2023-06-22T08:59:46;25.90;99.90
5394;DHT22;2720;52.396;10.064;2023-06-22T09:02:13;25.80;99.90
5394;DHT22;2720;52.396;10.064;2023-06-22T09:04:40;25.70;99.90
5394;DHT22;2720;52.396;10.064;2023-06-22T09:07:08;25.90;99.90
5394;DHT22;2720;52.396;10.064;2023-06-22T09:09:35;25.80;99.90
5394;DHT22;2720;52.396;10.064;2023-06-22T09:12:02;25.70;99.90
5394;DHT22;2720;52.396;10.064;2023-06-22T09:14:29;25.70;99.90
5394;DHT22;2720;52.396;10.064;2023-06-22T09:16:56;26.00;99.90
5394;DHT22;2720;52.396;10.064;2023-06-22T09:19:23;26.00;99.90
5394;DHT22;2720;52.396;10.064;2023-06-22T09:21:50;26.00;99.90
5394;DHT22;2720;52.396;10.064;2023-06-22T09:24:19;26.00;99.90
5394;DHT22;2720;52.396;10.064;2023-06-22T09:26:46;26.10;99.90
5394;DHT22;2720;52.396;10.064;2023-06-22T09:29:13;27.30;99.90
5394;DHT22;2720;52.396;10.064;2023-06-22T09:31:40;26.20;99.90
5394;DHT22;2720;52.396;10.064;2023-06-22T09:34:07;26.30;99.90
5394;DHT22;2720;52.396;10.064;2023-06-22T09:36:34;26.10;99.90
5394;DHT22;2720;52.396;10.064;2023-06-22T09:39:01;26.10;99.90
5394;DHT22;2720;52.396;10.064;2023-06-22T09:41:32;26.10;99.90
5394;DHT22;2720;52.396;10.064;2023-06-22T09:43:59;26.10;99.90
5394;DHT22;2720;52.396;10.064;2023-06-22T09:46:26;26.30;99.90
5394;DHT22;2720;52.396;10.064;2023-06-22T09:48:54;26.40;99.90
5394;DHT22;2720;52.396;10.064;2023-06-22T09:51:22;26.40;99.90
5394;DHT22;2720;52.396;10.064;2023-06-22T09:53:49;26.40;99.90
5394;DHT22;2720;52.396;10.064;2023-06-22T09:56:16;26.30;99.90
5394;DHT22;2720;52.396;10.064;2023-06-22T09:58:45;26.20;99.90
5394;DHT22;2720;52.396;10.064;2023-06-22T10:01:13;26.10;99.90
5394;DHT22;2720;52.396;10.064;2023-06-22T10:03:40;26.20;99.90
5394;DHT22;2720;52.396;10.064;2023-06-22T10:06:08;26.40;99.90
5394;DHT22;2720;52.396;10.064;2023-06-22T10:08:35;26.70;99.90
5394;DHT22;2720;52.396;10.064;2023-06-22T10:11:03;27.00;99.90
5394;DHT22;2720;52.396;10.064;2023-06-22T10:13:29;27.00;99.90
5394;DHT22;2720;52.396;10.064;2023-06-22T10:15:58;27.10;99.90
5394;DHT22;2720;52.396;10.064;2023-06-22T10:18:25;27.50;99.90
5394;DHT22;2720;52.396;10.064;2023-06-22T10:20:52;27.90;99.90
5394;DHT22;2720;52.396;10.064;2023-06-22T10:23:19;28.20;99.90
5394;DHT22;2720;52.396;10.064;2023-06-22T10:25:46;28.40;99.90
5394;DHT22;2720;52.396;10.064;2023-06-22T10:28:14;28.40;99.90
5394;DHT22;2720;52.396;10.064;2023-06-22T10:30:41;28.50;99.90
5394;DHT22;2720;52.396;10.064;2023-06-22T10:33:10;28.90;99.90
5394;DHT22;2720;52.396;10.064;2023-06-22T10:35:38;28.80;99.90
5394;DHT22;2720;52.396;10.064;2023-06-22T10:38:05;28.60;99.90
5394;DHT22;2720;52.396;10.064;2023-06-22T10:40:33;28.30;99.90
5394;DHT22;2720;52.396;10.064;2023-06-22T10:43:00;28.40;99.90
5394;DHT22;2720;52.396;10.064;2023-06-22T10:45:27;28.30;99.90
5394;DHT22;2720;52.396;10.064;2023-06-22T10:47:54;28.30;99.90
5394;DHT22;2720;52.396;10.064;2023-06-22T10:50:22;28.00;99.90
5394;DHT22;2720;52.396;10.064;2023-06-22T10:52:51;28.00;99.90
5394;DHT22;2720;52.396;10.064;2023-06-22T10:55:18;28.00;99.90
5394;DHT22;2720;52.396;10.064;2023-06-22T10:57:45;28.30;99.90
5394;DHT22;2720;52.396;10.064;2023-06-22T11:00:13;28.30;99.90
5394;DHT22;2720;52.396;10.064;2023-06-22T11:02:40;28.50;99.90
5394;DHT22;2720;52.396;10.064;2023-06-22T11:05:08;28.40;99.90
5394;DHT22;2720;52.396;10.064;2023-06-22T11:07:37;28.20;99.90
5394;DHT22;2720;52.396;10.064;2023-06-22T11:10:05;28.20;99.90
5394;DHT22;2720;52.396;10.064;2023-06-22T11:12:32;28.00;99.90
5394;DHT22;2720;52.396;10.064;2023-06-22T11:15:00;28.20;99.90
5394;DHT22;2720;52.396;10.064;2023-06-22T11:17:27;28.10;99.90
5394;DHT22;2720;52.396;10.064;2023-06-22T11:19:54;28.20;99.90
5394;DHT22;2720;52.396;10.064;2023-06-22T11:22:21;28.40;99.90
5394;DHT22;2720;52.396;10.064;2023-06-22T11:24:49;28.30;99.90
5394;DHT22;2720;52.396;10.064;2023-06-22T11:27:16;28.20;99.90
5394;DHT22;2720;52.396;10.064;2023-06-22T11:29:43;28.40;99.90
5394;DHT22;2720;52.396;10.064;2023-06-22T11:32:10;28.40;99.90
5394;DHT22;2720;52.396;10.064;2023-06-22T11:34:37;28.40;99.90
5394;DHT22;2720;52.396;10.064;2023-06-22T11:37:05;28.50;99.90
5394;DHT22;2720;52.396;10.064;2023-06-22T11:39:32;28.60;99.90
5394;DHT22;2720;52.396;10.064;2023-06-22T11:42:01;28.60;99.90
5394;DHT22;2720;52.396;10.064;2023-06-22T11:44:28;28.40;99.90
5394;DHT22;2720;52.396;10.064;2023-06-22T11:46:55;28.30;99.90
5394;DHT22;2720;52.396;10.064;2023-06-22T11:49:22;28.40;99.90
5394;DHT22;2720;52.396;10.064;2023-06-22T11:51:49;28.50;99.90
5394;DHT22;2720;52.396;10.064;2023-06-22T11:54:15;29.10;99.90
5394;DHT22;2720;52.396;10.064;2023-06-22T11:56:42;29.50;99.90
5394;DHT22;2720;52.396;10.064;2023-06-22T11:59:11;29.80;99.90
5394;DHT22;2720;52.396;10.064;2023-06-22T12:01:38;30.10;99.90
5394;DHT22;2720;52.396;10.064;2023-06-22T12:04:05;30.40;99.90
5394;DHT22;2720;52.396;10.064;2023-06-22T12:06:32;30.40;99.90
5394;DHT22;2720;52.396;10.064;2023-06-22T12:09:00;30.40;99.90
5394;DHT22;2720;52.396;10.064;2023-06-22T12:11:30;30.70;99.90
5394;DHT22;2720;52.396;10.064;2023-06-22T12:13:57;31.00;99.90
5394;DHT22;2720;52.396;10.064;2023-06-22T12:16:28;31.10;99.90
5394;DHT22;2720;52.396;10.064;2023-06-22T12:18:55;31.20;99.90
5394;DHT22;2720;52.396;10.064;2023-06-22T12:21:22;31.50;99.90
5394;DHT22;2720;52.396;10.064;2023-06-22T12:23:49;31.40;99.90
5394;DHT22;2720;52.396;10.064;2023-06-22T12:26:16;30.90;99.90
5394;DHT22;2720;52.396;10.064;2023-06-22T12:28:43;30.50;99.90
5394;DHT22;2720;52.396;10.064;2023-06-22T12:31:10;30.40;99.90
5394;DHT22;2720;52.396;10.064;2023-06-22T12:33:38;30.80;99.90
5394;DHT22;2720;52.396;10.064;2023-06-22T12:36:05;31.10;99.90
5394;DHT22;2720;52.396;10.064;2023-06-22T12:38:32;31.30;99.90
5394;DHT22;2720;52.396;10.064;2023-06-22T12:40:59;31.40;99.90
5394;DHT22;2720;52.396;10.064;2023-06-22T12:43:26;30.90;99.90
5394;DHT22;2720;52.396;10.064;2023-06-22T12:45:53;30.60;99.90
5394;DHT22;2720;52.396;10.064;2023-06-22T12:48:22;30.20;99.90
5394;DHT22;2720;52.396;10.064;2023-06-22T12:50:52;29.90;99.90
5394;DHT22;2720;52.396;10.064;2023-06-22T12:53:19;29.70;99.90
5394;DHT22;2720;52.396;10.064;2023-06-22T12:55:48;29.50;99.90
5394;DHT22;2720;52.396;10.064;2023-06-22T12:58:15;29.30;99.90
5394;DHT22;2720;52.396;10.064;2023-06-22T13:00:42;29.30;99.90
5394;DHT22;2720;52.396;10.064;2023-06-22T13:03:09;29.40;99.90
5394;DHT22;2720;52.396;10.064;2023-06-22T13:05:36;29.60;99.90
5394;DHT22;2720;52.396;10.064;2023-06-22T13:08:05;29.80;99.90
5394;DHT22;2720;52.396;10.064;2023-06-22T13:10:32;29.50;99.90
5394;DHT22;2720;52.396;10.064;2023-06-22T13:12:59;29.00;99.90
5394;DHT22;2720;52.396;10.064;2023-06-22T13:15:27;28.80;99.90
5394;DHT22;2720;52.396;10.064;2023-06-22T13:17:55;28.60;99.90
5394;DHT22;2720;52.396;10.064;2023-06-22T13:20:22;28.40;99.90
5394;DHT22;2720;52.396;10.064;2023-06-22T13:22:49;27.90;99.90
5394;DHT22;2720;52.396;10.064;2023-06-22T13:25:17;27.40;99.90
5394;DHT22;2720;52.396;10.064;2023-06-22T13:27:46;27.00;99.90
5394;DHT22;2720;52.396;10.064;2023-06-22T13:30:13;26.50;99.90
5394;DHT22;2720;52.396;10.064;2023-06-22T13:32:41;25.80;99.90
5394;DHT22;2720;52.396;10.064;2023-06-22T13:35:09;25.40;99.90
5394;DHT22;2720;52.396;10.064;2023-06-22T13:37:36;25.20;99.90
5394;DHT22;2720;52.396;10.064;2023-06-22T13:40:04;25.00;99.90
5394;DHT22;2720;52.396;10.064;2023-06-22T13:42:33;25.00;99.90
5394;DHT22;2720;52.396;10.064;2023-06-22T13:45:00;25.20;99.90
5394;DHT22;2720;52.396;10.064;2023-06-22T13:47:29;25.30;99.90
5394;DHT22;2720;52.396;10.064;2023-06-22T13:49:56;25.50;99.90
5394;DHT22;2720;52.396;10.064;2023-06-22T13:52:23;25.70;99.90
5394;DHT22;2720;52.396;10.064;2023-06-22T13:54:50;25.90;99.90
5394;DHT22;2720;52.396;10.064;2023-06-22T13:57:17;26.00;99.90
5394;DHT22;2720;52.396;10.064;2023-06-22T13:59:45;25.90;99.90
5394;DHT22;2720;52.396;10.064;2023-06-22T14:02:12;25.80;99.90
5394;DHT22;2720;52.396;10.064;2023-06-22T14:04:39;26.00;99.90
5394;DHT22;2720;52.396;10.064;2023-06-22T14:07:06;26.20;99.90
5394;DHT22;2720;52.396;10.064;2023-06-22T14:09:33;26.30;99.90
5394;DHT22;2720;52.396;10.064;2023-06-22T14:12:05;26.40;99.90
5394;DHT22;2720;52.396;10.064;2023-06-22T14:14:32;26.30;99.90
5394;DHT22;2720;52.396;10.064;2023-06-22T14:17:00;26.20;99.90
5394;DHT22;2720;52.396;10.064;2023-06-22T14:19:27;26.10;99.90
5394;DHT22;2720;52.396;10.064;2023-06-22T14:21:54;25.80;99.90
5394;DHT22;2720;52.396;10.064;2023-06-22T14:24:22;25.30;99.90
5394;DHT22;2720;52.396;10.064;2023-06-22T14:26:49;24.90;99.90
5394;DHT22;2720;52.396;10.064;2023-06-22T14:29:16;24.40;99.90
5394;DHT22;2720;52.396;10.064;2023-06-22T14:31:45;24.00;99.90
5394;DHT22;2720;52.396;10.064;2023-06-22T14:34:14;22.50;99.90
5394;DHT22;2720;52.396;10.064;2023-06-22T14:36:41;23.60;99.90
5394;DHT22;2720;52.396;10.064;2023-06-22T14:39:09;23.50;99.90
5394;DHT22;2720;52.396;10.064;2023-06-22T14:41:36;23.50;99.90
5394;DHT22;2720;52.396;10.064;2023-06-22T14:44:03;23.60;99.90
5394;DHT22;2720;52.396;10.064;2023-06-22T14:46:30;23.70;99.90
5394;DHT22;2720;52.396;10.064;2023-06-22T14:48:57;24.00;99.90
5394;DHT22;2720;52.396;10.064;2023-06-22T14:51:26;24.20;99.90
5394;DHT22;2720;52.396;10.064;2023-06-22T14:53:53;24.50;99.90
5394;DHT22;2720;52.396;10.064;2023-06-22T14:56:20;24.60;99.90
5394;DHT22;2720;52.396;10.064;2023-06-22T14:58:46;24.60;99.90
5394;DHT22;2720;52.396;10.064;2023-06-22T15:01:16;24.70;99.90
5394;DHT22;2720;52.396;10.064;2023-06-22T15:03:43;24.60;99.90
5394;DHT22;2720;52.396;10.064;2023-06-22T15:06:10;24.50;99.90
5394;DHT22;2720;52.396;10.064;2023-06-22T15:08:38;24.30;99.90
5394;DHT22;2720;52.396;10.064;2023-06-22T15:11:06;24.30;99.90
5394;DHT22;2720;52.396;10.064;2023-06-22T15:13:33;24.20;99.90
5394;DHT22;2720;52.396;10.064;2023-06-22T15:16:01;24.20;99.90
5394;DHT22;2720;52.396;10.064;2023-06-22T15:18:29;24.20;99.90
5394;DHT22;2720;52.396;10.064;2023-06-22T15:20:56;24.20;99.90
5394;DHT22;2720;52.396;10.064;2023-06-22T15:23:24;24.20;99.90
5394;DHT22;2720;52.396;10.064;2023-06-22T15:25:52;24.10;99.90
5394;DHT22;2720;52.396;10.064;2023-06-22T15:28:19;24.00;99.90
5394;DHT22;2720;52.396;10.064;2023-06-22T15:30:46;24.00;99.90
5394;DHT22;2720;52.396;10.064;2023-06-22T15:33:14;24.00;99.90
5394;DHT22;2720;52.396;10.064;2023-06-22T15:35:41;23.90;99.90
5394;DHT22;2720;52.396;10.064;2023-06-22T15:38:08;23.90;99.90
5394;DHT22;2720;52.396;10.064;2023-06-22T15:40:35;23.80;99.90
5394;DHT22;2720;52.396;10.064;2023-06-22T15:43:03;23.70;99.90
5394;DHT22;2720;52.396;10.064;2023-06-22T15:45:30;23.60;99.90
5394;DHT22;2720;52.396;10.064;2023-06-22T15:47:57;23.60;99.90